createdAt,value
2019-03-05T00:00:14.265Z,8.10
2019-03-05T00:02:41.190Z,8.10
2019-03-05T00:05:08.589Z,8.10
2019-03-05T00:07:35.520Z,8.10
2019-03-05T00:10:03.680Z,8.20
2019-03-05T00:12:30.591Z,8.20
2019-03-05T00:14:57.661Z,8.20
2019-03-05T00:17:24.568Z,8.20
2019-03-05T00:19:51.580Z,8.30
2019-03-05T00:22:18.636Z,8.30
2019-03-05T00:25:20.389Z,8.30
2019-03-05T00:27:58.097Z,8.30
2019-03-05T00:30:40.627Z,8.30
2019-03-05T00:33:15.222Z,8.30
2019-03-05T00:36:36.774Z,8.30
2019-03-05T00:39:40.423Z,8.30
2019-03-05T00:42:45.121Z,8.30
2019-03-05T00:45:59.646Z,8.30
2019-03-05T00:49:23.460Z,8.30
2019-03-05T00:52:19.179Z,8.20
2019-03-05T00:55:43.744Z,8.10
2019-03-05T00:58:35.094Z,8.20
2019-03-05T01:01:16.235Z,8.20
2019-03-05T01:04:31.645Z,8.10
2019-03-05T01:06:58.691Z,8.20
2019-03-05T01:09:25.967Z,8.10
2019-03-05T01:11:52.857Z,8.10
2019-03-05T01:14:21.133Z,8.10
2019-03-05T01:16:48.212Z,8.20
2019-03-05T01:19:15.165Z,8.30
2019-03-05T01:21:42.040Z,8.30
2019-03-05T01:24:09.035Z,8.30
2019-03-05T01:26:36.017Z,8.40
2019-03-05T01:29:03.213Z,8.40
2019-03-05T01:31:37.836Z,8.30
2019-03-05T01:34:12.924Z,8.30
2019-03-05T01:36:44.475Z,8.20
2019-03-05T01:39:19.425Z,8.30
2019-03-05T01:41:46.472Z,8.30
2019-03-05T01:44:13.349Z,8.30
2019-03-05T01:46:40.308Z,8.30
2019-03-05T01:49:07.237Z,8.30
2019-03-05T01:51:34.170Z,8.30
2019-03-05T01:54:01.103Z,8.30
2019-03-05T01:56:28.085Z,8.30
2019-03-05T01:58:55.076Z,8.30
2019-03-05T02:01:22.046Z,8.20
2019-03-05T02:03:49.134Z,8.20
2019-03-05T02:06:16.159Z,8.20
2019-03-05T02:08:43.091Z,8.20
2019-03-05T02:11:10.395Z,8.20
2019-03-05T02:13:37.296Z,8.20
2019-03-05T02:16:04.230Z,8.20
2019-03-05T02:18:31.212Z,8.30
2019-03-05T02:20:58.093Z,8.30
2019-03-05T02:23:29.676Z,8.30
2019-03-05T02:26:46.100Z,8.20
2019-03-05T02:29:45.233Z,8.20
2019-03-05T02:32:41.155Z,8.10
2019-03-05T02:35:39.463Z,8.00
2019-03-05T02:38:47.421Z,7.90
2019-03-05T02:41:35.572Z,7.90
2019-03-05T02:44:46.664Z,8.00
2019-03-05T02:47:41.111Z,8.00
2019-03-05T02:50:54.218Z,8.10
2019-03-05T02:53:42.729Z,8.10
2019-03-05T02:56:36.685Z,8.00
2019-03-05T02:59:02.615Z,8.00
2019-03-05T03:01:37.393Z,8.00
2019-03-05T03:04:06.361Z,8.10
2019-03-05T03:06:33.329Z,8.20
2019-03-05T03:09:50.790Z,8.20
2019-03-05T03:12:17.836Z,8.10
2019-03-05T03:14:44.877Z,8.10
2019-03-05T03:17:11.809Z,8.10
2019-03-05T03:19:38.770Z,8.20
2019-03-05T03:22:05.658Z,8.20
2019-03-05T03:24:35.244Z,8.20
2019-03-05T03:27:02.781Z,8.20
2019-03-05T03:29:29.649Z,8.20
2019-03-05T03:31:56.702Z,8.20
2019-03-05T03:34:23.717Z,8.10
2019-03-05T03:36:50.694Z,8.10
2019-03-05T03:39:17.739Z,8.20
2019-03-05T03:41:44.728Z,8.10
2019-03-05T03:44:11.599Z,8.20
2019-03-05T03:46:38.640Z,8.20
2019-03-05T03:49:05.593Z,8.20
2019-03-05T03:51:32.487Z,8.20
2019-03-05T03:53:59.476Z,8.20
2019-03-05T03:56:26.432Z,8.20
2019-03-05T03:58:53.477Z,8.10
2019-03-05T04:01:20.343Z,8.10
2019-03-05T04:03:47.335Z,8.10
2019-03-05T04:06:14.485Z,8.10
2019-03-05T04:08:41.585Z,8.10
2019-03-05T04:11:08.889Z,8.10
2019-03-05T04:13:35.987Z,8.10
2019-03-05T04:16:02.994Z,8.00
2019-03-05T04:18:29.922Z,8.00
2019-03-05T04:20:56.817Z,7.90
2019-03-05T04:23:23.863Z,8.00
2019-03-05T04:25:50.741Z,8.00
2019-03-05T04:28:17.775Z,8.00
2019-03-05T04:30:44.720Z,8.10
2019-03-05T04:33:11.634Z,8.10
2019-03-05T04:35:38.676Z,8.10
2019-03-05T04:38:05.723Z,8.10
2019-03-05T04:40:32.672Z,8.10
2019-03-05T04:42:59.544Z,8.10
2019-03-05T04:45:35.860Z,8.00
2019-03-05T04:48:02.783Z,7.90
2019-03-05T04:50:31.755Z,7.80
2019-03-05T04:52:58.651Z,7.90
2019-03-05T04:55:25.624Z,7.90
2019-03-05T04:57:52.619Z,7.90
2019-03-05T05:00:19.611Z,7.90
2019-03-05T05:02:46.564Z,7.90
2019-03-05T05:05:13.527Z,7.90
2019-03-05T05:07:40.538Z,7.90
2019-03-05T05:10:08.568Z,7.90
2019-03-05T05:12:35.453Z,7.90
2019-03-05T05:15:02.668Z,7.90
2019-03-05T05:17:29.683Z,8.00
2019-03-05T05:19:56.665Z,8.00
2019-03-05T05:22:23.669Z,8.00
2019-03-05T05:24:50.636Z,8.00
2019-03-05T05:27:17.637Z,8.00
2019-03-05T05:29:44.696Z,8.10
2019-03-05T05:32:11.605Z,8.00
2019-03-05T05:34:38.585Z,8.00
2019-03-05T05:37:05.483Z,8.00
2019-03-05T05:40:08.870Z,8.00
2019-03-05T05:42:35.860Z,8.00
2019-03-05T05:45:03.913Z,8.10
2019-03-05T05:47:30.981Z,8.00
2019-03-05T05:49:57.860Z,8.10
2019-03-05T05:52:24.917Z,8.10
2019-03-05T05:54:51.794Z,8.10
2019-03-05T05:57:18.879Z,8.10
2019-03-05T05:59:46.049Z,8.20
2019-03-05T06:02:13.081Z,8.20
2019-03-05T06:04:40.111Z,8.10
2019-03-05T06:07:07.080Z,8.10
2019-03-05T06:09:34.002Z,8.00
2019-03-05T06:12:01.103Z,8.00
2019-03-05T06:14:28.079Z,8.00
2019-03-05T06:16:55.016Z,8.00
2019-03-05T06:19:21.929Z,8.00
2019-03-05T06:21:48.885Z,8.00
2019-03-05T06:24:15.914Z,8.00
2019-03-05T06:26:42.807Z,8.10
2019-03-05T06:29:09.797Z,8.00
2019-03-05T06:31:36.807Z,8.10
2019-03-05T06:34:03.801Z,8.10
2019-03-05T06:36:52.073Z,8.20
2019-03-05T06:39:19.108Z,8.10
2019-03-05T06:41:46.093Z,8.10
2019-03-05T06:44:13.139Z,8.20
2019-03-05T06:46:40.024Z,8.20
2019-03-05T06:49:07.069Z,8.10
2019-03-05T06:51:34.024Z,8.20
2019-03-05T06:54:00.946Z,8.20
2019-03-05T06:56:27.915Z,8.30
2019-03-05T06:58:54.868Z,8.20
2019-03-05T07:01:21.808Z,8.30
2019-03-05T07:03:48.708Z,8.20
2019-03-05T07:06:52.925Z,8.20
2019-03-05T07:10:07.877Z,8.30
2019-03-05T07:12:39.281Z,8.30
2019-03-05T07:15:18.279Z,8.40
2019-03-05T07:17:49.702Z,8.40
2019-03-05T07:21:00.184Z,8.40
2019-03-05T07:24:11.712Z,8.50
2019-03-05T07:26:38.802Z,8.70
2019-03-05T07:29:05.740Z,8.80
2019-03-05T07:31:32.756Z,8.90
2019-03-05T07:33:59.677Z,9.00
2019-03-05T07:36:26.606Z,9.00
2019-03-05T07:38:53.727Z,9.00
2019-03-05T07:41:20.816Z,9.00
2019-03-05T07:43:47.729Z,9.00
2019-03-05T07:46:14.961Z,9.10
2019-03-05T07:48:42.035Z,9.20
2019-03-05T07:51:09.135Z,9.00
2019-03-05T07:53:36.189Z,9.10
2019-03-05T07:56:03.156Z,9.10
2019-03-05T07:58:30.222Z,9.20
2019-03-05T08:00:57.203Z,9.20
2019-03-05T08:03:24.270Z,9.40
2019-03-05T08:05:51.321Z,9.50
2019-03-05T08:08:55.289Z,9.70
2019-03-05T08:11:22.193Z,9.90
2019-03-05T08:14:49.233Z,9.90
2019-03-05T08:17:16.424Z,9.80
2019-03-05T08:19:43.526Z,9.60
2019-03-05T08:22:10.537Z,9.40
2019-03-05T08:24:37.687Z,9.30
2019-03-05T08:27:04.721Z,9.40
2019-03-05T08:29:31.889Z,9.40
2019-03-05T08:31:58.873Z,9.30
2019-03-05T08:34:25.899Z,9.10
2019-03-05T08:36:52.995Z,9.10
2019-03-05T08:39:20.081Z,9.20
2019-03-05T08:41:47.156Z,9.20
2019-03-05T08:44:14.173Z,9.10
2019-03-05T08:46:41.290Z,9.10
2019-03-05T08:49:08.306Z,9.10
2019-03-05T08:51:35.451Z,9.10
2019-03-05T08:54:02.659Z,9.10
2019-03-05T08:56:29.589Z,9.20
2019-03-05T08:58:56.709Z,9.30
2019-03-05T09:01:23.627Z,9.30
2019-03-05T09:03:50.527Z,9.30
2019-03-05T09:06:17.639Z,9.20
2019-03-05T09:08:44.541Z,9.20
2019-03-05T09:11:11.803Z,9.30
2019-03-05T09:13:39.147Z,9.50
2019-03-05T09:16:06.446Z,9.60
2019-03-05T09:18:33.634Z,9.50
2019-03-05T09:21:00.597Z,9.40
2019-03-05T09:23:27.765Z,9.40
2019-03-05T09:25:54.675Z,9.30
2019-03-05T09:28:21.769Z,9.30
2019-03-05T09:30:48.832Z,9.30
2019-03-05T09:33:15.950Z,9.30
2019-03-05T09:35:43.529Z,9.30
2019-03-05T09:38:11.283Z,9.30
2019-03-05T09:40:42.616Z,9.20
2019-03-05T09:43:09.751Z,9.20
2019-03-05T09:45:37.803Z,9.30
2019-03-05T09:48:04.710Z,9.30
2019-03-05T09:50:32.252Z,9.30
2019-03-05T09:52:59.383Z,9.30
2019-03-05T09:55:26.402Z,9.30
2019-03-05T09:57:54.610Z,9.30
2019-03-05T10:00:22.002Z,9.30
2019-03-05T10:02:48.910Z,9.30
2019-03-05T10:05:15.958Z,9.30
2019-03-05T10:07:43.141Z,9.20
2019-03-05T10:10:12.210Z,9.10
2019-03-05T10:12:39.420Z,9.10
2019-03-05T10:15:09.072Z,9.00
2019-03-05T10:17:38.210Z,8.90
2019-03-05T10:20:07.767Z,9.00
2019-03-05T10:22:34.897Z,8.90
2019-03-05T10:25:05.929Z,9.00
2019-03-05T10:27:30.955Z,8.90
2019-03-05T10:29:57.915Z,8.90
2019-03-05T10:32:24.822Z,9.00
2019-03-05T10:34:51.892Z,9.00
2019-03-05T10:37:19.326Z,9.00
2019-03-05T10:39:46.395Z,8.90
2019-03-05T10:42:13.374Z,8.80
2019-03-05T10:44:40.396Z,8.90
2019-03-05T10:47:07.307Z,8.80
2019-03-05T10:49:34.284Z,8.90
2019-03-05T10:52:02.353Z,9.00
2019-03-05T10:54:29.610Z,9.10
2019-03-05T10:56:56.529Z,9.10
2019-03-05T10:59:23.510Z,9.20
2019-03-05T11:01:50.854Z,9.10
2019-03-05T11:04:17.872Z,9.00
2019-03-05T11:06:44.875Z,9.20
2019-03-05T11:09:13.062Z,9.10
2019-03-05T11:11:40.070Z,9.10
2019-03-05T11:14:09.622Z,9.20
2019-03-05T11:16:36.794Z,9.30
2019-03-05T11:19:03.905Z,9.30
2019-03-05T11:21:30.851Z,9.40
2019-03-05T11:23:57.781Z,9.30
2019-03-05T11:26:24.987Z,9.30
2019-03-05T11:28:54.565Z,9.40
2019-03-05T11:31:21.237Z,9.50
2019-03-05T11:33:48.323Z,9.60
2019-03-05T11:36:15.798Z,9.60
2019-03-05T11:38:43.739Z,9.60
2019-03-05T11:41:10.903Z,9.70
2019-03-05T11:43:37.961Z,9.80
2019-03-05T11:46:09.456Z,9.90
2019-03-05T11:48:36.544Z,9.90
2019-03-05T11:51:03.613Z,9.90
2019-03-05T11:53:30.647Z,9.80
2019-03-05T11:55:57.683Z,9.80
2019-03-05T11:58:24.731Z,9.80
2019-03-05T12:00:53.882Z,9.80
2019-03-05T12:03:21.058Z,9.80
2019-03-05T12:05:48.072Z,9.90
2019-03-05T12:08:14.973Z,9.70
2019-03-05T12:10:42.074Z,9.70
2019-03-05T12:13:09.250Z,9.70
2019-03-05T12:15:36.421Z,9.70
2019-03-05T12:18:03.777Z,9.80
2019-03-05T12:20:30.800Z,9.70
2019-03-05T12:22:57.863Z,9.90
2019-03-05T12:25:25.099Z,9.80
2019-03-05T12:27:52.131Z,9.80
2019-03-05T12:30:20.660Z,9.80
2019-03-05T12:32:47.890Z,9.70
2019-03-05T12:35:14.906Z,9.70
2019-03-05T12:37:42.003Z,9.70
2019-03-05T12:40:10.221Z,9.70
2019-03-05T12:42:37.183Z,9.80
2019-03-05T12:45:04.948Z,9.90
2019-03-05T12:47:31.895Z,9.90
2019-03-05T12:50:02.658Z,9.90
2019-03-05T12:52:29.863Z,9.90
2019-03-05T12:54:56.761Z,10.00
2019-03-05T12:57:23.833Z,10.10
2019-03-05T12:59:51.064Z,10.20
2019-03-05T13:02:18.109Z,10.10
2019-03-05T13:04:45.058Z,10.00
2019-03-05T13:07:14.260Z,10.00
2019-03-05T13:09:40.948Z,9.80
2019-03-05T13:12:08.057Z,9.80
2019-03-05T13:14:38.232Z,9.70
2019-03-05T13:17:05.267Z,9.60
2019-03-05T13:19:32.398Z,9.70
2019-03-05T13:21:59.392Z,9.70
2019-03-05T13:24:26.405Z,9.80
2019-03-05T13:26:53.515Z,10.10
2019-03-05T13:29:20.741Z,10.30
2019-03-05T13:31:49.603Z,10.40
2019-03-05T13:34:17.767Z,10.40
2019-03-05T13:36:46.966Z,10.50
2019-03-05T13:39:22.376Z,10.70
2019-03-05T13:41:50.478Z,10.70
2019-03-05T13:44:32.078Z,10.80
2019-03-05T13:47:00.953Z,10.70
2019-03-05T13:49:41.128Z,10.60
2019-03-05T13:52:42.190Z,10.60
2019-03-05T13:55:56.400Z,10.70
2019-03-05T13:58:38.590Z,10.80
2019-03-05T14:01:07.880Z,10.90
2019-03-05T14:03:39.977Z,10.80
2019-03-05T14:06:33.062Z,10.70
2019-03-05T14:09:11.429Z,10.60
2019-03-05T14:11:38.517Z,10.50
2019-03-05T14:14:07.780Z,10.60
2019-03-05T14:16:34.884Z,10.60
2019-03-05T14:19:03.144Z,10.70
2019-03-05T14:21:30.161Z,10.70
2019-03-05T14:23:57.244Z,10.60
2019-03-05T14:26:26.124Z,10.60
2019-03-05T14:28:53.163Z,10.60
2019-03-05T14:31:20.211Z,10.50
2019-03-05T14:33:50.399Z,10.30
2019-03-05T14:36:18.319Z,10.10
2019-03-05T14:38:45.376Z,10.00
2019-03-05T14:41:12.515Z,10.20
2019-03-05T14:43:39.521Z,10.20
2019-03-05T14:46:06.895Z,10.30
2019-03-05T14:48:35.028Z,10.30
2019-03-05T14:51:03.806Z,10.40
2019-03-05T14:53:30.889Z,10.50
2019-03-05T14:55:58.028Z,10.60
2019-03-05T14:58:25.159Z,10.80
2019-03-05T15:00:52.782Z,10.80
2019-03-05T15:03:19.960Z,10.80
2019-03-05T15:05:46.994Z,10.80
2019-03-05T15:08:14.238Z,10.90
2019-03-05T15:10:41.363Z,10.90
2019-03-05T15:13:15.697Z,10.90
2019-03-05T15:15:37.594Z,10.80
2019-03-05T15:18:08.687Z,10.70
2019-03-05T15:20:36.018Z,10.60
2019-03-05T15:23:03.417Z,10.70
2019-03-05T15:25:32.631Z,10.70
2019-03-05T15:28:03.951Z,10.70
2019-03-05T15:30:31.030Z,10.40
2019-03-05T15:32:58.117Z,10.20
2019-03-05T15:35:25.214Z,10.10
2019-03-05T15:37:52.182Z,10.00
2019-03-05T15:40:19.240Z,9.90
2019-03-05T15:42:47.875Z,9.90
2019-03-05T15:45:17.905Z,9.80
2019-03-05T15:47:46.675Z,9.70
2019-03-05T15:50:15.731Z,9.70
2019-03-05T15:52:42.804Z,9.70
2019-03-05T15:55:10.487Z,9.80
2019-03-05T15:57:37.558Z,9.70
2019-03-05T16:00:10.530Z,9.70
2019-03-05T16:02:37.608Z,9.80
2019-03-05T16:05:11.948Z,9.80
2019-03-05T16:07:33.785Z,9.80
2019-03-05T16:10:00.825Z,9.80
2019-03-05T16:12:28.935Z,9.80
2019-03-05T16:14:56.017Z,9.70
2019-03-05T16:17:27.959Z,9.70
2019-03-05T16:19:55.337Z,9.70
2019-03-05T16:22:24.360Z,9.60
2019-03-05T16:24:51.199Z,9.60
2019-03-05T16:27:18.186Z,9.50
2019-03-05T16:29:45.125Z,9.50
2019-03-05T16:32:14.045Z,9.40
2019-03-05T16:34:59.730Z,9.50
2019-03-05T16:37:28.691Z,9.40
2019-03-05T16:40:00.667Z,9.40
2019-03-05T16:42:34.483Z,9.30
2019-03-05T16:45:10.396Z,9.30
2019-03-05T16:47:58.906Z,9.30
2019-03-05T16:50:36.850Z,9.30
2019-03-05T16:53:05.736Z,9.20
2019-03-05T16:55:37.477Z,9.20
2019-03-05T16:58:18.336Z,9.10
2019-03-05T17:00:49.136Z,9.10
2019-03-05T17:03:18.252Z,9.10
2019-03-05T17:05:47.437Z,9.00
2019-03-05T17:08:33.209Z,9.00
2019-03-05T17:11:05.423Z,9.00
2019-03-05T17:13:32.491Z,8.90
2019-03-05T17:16:02.936Z,8.90
2019-03-05T17:18:29.952Z,8.90
2019-03-05T17:20:57.096Z,8.80
2019-03-05T17:23:25.196Z,8.80
2019-03-05T17:25:52.280Z,8.80
2019-03-05T17:28:19.481Z,8.80
2019-03-05T17:30:46.476Z,8.80
2019-03-05T17:33:13.711Z,8.70
2019-03-05T17:35:40.768Z,8.70
2019-03-05T17:38:08.113Z,8.70
2019-03-05T17:40:35.196Z,8.70
2019-03-05T17:43:02.368Z,8.60
2019-03-05T17:45:29.444Z,8.60
2019-03-05T17:47:56.495Z,8.60
2019-03-05T17:50:23.468Z,8.60
2019-03-05T17:52:50.532Z,8.50
2019-03-05T17:55:24.545Z,8.40
2019-03-05T17:57:47.909Z,8.30
2019-03-05T18:00:18.386Z,8.20
2019-03-05T18:02:45.558Z,8.10
2019-03-05T18:05:12.632Z,8.00
2019-03-05T18:07:39.531Z,7.90
2019-03-05T18:10:07.660Z,7.90
2019-03-05T18:12:34.925Z,7.80
2019-03-05T18:15:02.145Z,7.90
2019-03-05T18:17:31.344Z,7.90
2019-03-05T18:19:59.889Z,7.90
2019-03-05T18:22:26.938Z,7.90
2019-03-05T18:24:53.821Z,7.80
2019-03-05T18:27:20.917Z,7.60
2019-03-05T18:29:48.127Z,7.60
2019-03-05T18:32:15.192Z,7.60
2019-03-05T18:34:44.556Z,7.60
2019-03-05T18:37:11.767Z,7.70
2019-03-05T18:39:39.052Z,7.70
2019-03-05T18:42:06.334Z,7.70
2019-03-05T18:44:33.589Z,7.70
2019-03-05T18:47:00.976Z,7.60
2019-03-05T18:49:28.055Z,7.50
2019-03-05T18:51:56.255Z,7.40
2019-03-05T18:54:23.556Z,7.40
2019-03-05T18:56:50.626Z,7.40
2019-03-05T18:59:17.767Z,7.30
2019-03-05T19:01:44.811Z,7.20
2019-03-05T19:04:11.840Z,6.90
2019-03-05T19:06:39.012Z,6.80
2019-03-05T19:09:06.163Z,6.60
2019-03-05T19:11:33.353Z,6.60
2019-03-05T19:14:00.687Z,6.60
2019-03-05T19:16:29.280Z,6.60
2019-03-05T19:18:56.398Z,6.60
2019-03-05T19:21:24.460Z,6.40
2019-03-05T19:23:51.850Z,6.30
2019-03-05T19:26:19.260Z,6.20
2019-03-05T19:28:46.424Z,6.20
2019-03-05T19:31:13.513Z,6.20
2019-03-05T19:33:40.712Z,6.20
2019-03-05T19:36:07.826Z,6.30
2019-03-05T19:38:34.959Z,6.40
2019-03-05T19:41:02.755Z,6.40
2019-03-05T19:43:30.741Z,6.30
2019-03-05T19:45:57.849Z,6.10
2019-03-05T19:48:25.262Z,6.00
2019-03-05T19:50:52.313Z,6.00
2019-03-05T19:53:19.417Z,5.90
2019-03-05T19:55:46.472Z,5.90
2019-03-05T19:58:13.644Z,5.70
2019-03-05T20:00:46.833Z,5.60
2019-03-05T20:03:13.966Z,5.70
2019-03-05T20:05:41.220Z,5.80
2019-03-05T20:08:08.588Z,5.80
2019-03-05T20:10:36.268Z,5.80
2019-03-05T20:13:03.980Z,5.60
2019-03-05T20:15:31.221Z,5.70
2019-03-05T20:17:59.613Z,5.50
2019-03-05T20:20:26.882Z,5.50
2019-03-05T20:22:54.270Z,5.60
2019-03-05T20:25:21.662Z,5.60
2019-03-05T20:27:51.753Z,5.60
2019-03-05T20:30:19.031Z,5.50
2019-03-05T20:32:48.309Z,5.40
2019-03-05T20:35:15.641Z,5.30
2019-03-05T20:37:43.424Z,5.40
2019-03-05T20:40:12.062Z,5.50
2019-03-05T20:42:40.555Z,5.50
2019-03-05T20:45:14.152Z,5.20
2019-03-05T20:47:41.632Z,5.30
2019-03-05T20:50:11.853Z,5.30
2019-03-05T20:52:38.979Z,5.50
2019-03-05T20:55:08.242Z,5.40
2019-03-05T20:57:35.958Z,5.30
2019-03-05T21:00:10.912Z,5.40
2019-03-05T21:02:38.122Z,5.30
2019-03-05T21:05:05.543Z,5.20
2019-03-05T21:07:32.921Z,5.10
2019-03-05T21:10:00.870Z,5.20
2019-03-05T21:12:30.216Z,5.10
2019-03-05T21:14:57.632Z,5.10
2019-03-05T21:17:24.744Z,5.00
2019-03-05T21:19:52.282Z,5.10
2019-03-05T21:22:21.497Z,5.10
2019-03-05T21:24:48.899Z,5.10
2019-03-05T21:27:16.226Z,5.10
2019-03-05T21:29:46.531Z,5.10
2019-03-05T21:32:14.252Z,5.20
2019-03-05T21:34:41.692Z,5.30
2019-03-05T21:37:11.247Z,5.20
2019-03-05T21:39:38.864Z,5.20
2019-03-05T21:42:05.873Z,5.20
2019-03-05T21:44:32.861Z,5.40
2019-03-05T21:47:00.048Z,5.50
2019-03-05T21:49:27.344Z,5.60
2019-03-05T21:51:54.501Z,5.60
2019-03-05T21:54:21.722Z,5.70
2019-03-05T21:56:48.858Z,5.70
2019-03-05T21:59:17.651Z,5.60
2019-03-05T22:01:44.725Z,5.60
2019-03-05T22:04:11.770Z,5.60
2019-03-05T22:06:38.818Z,5.60
2019-03-05T22:09:06.260Z,5.70
2019-03-05T22:11:33.248Z,5.70
2019-03-05T22:14:00.305Z,5.70
2019-03-05T22:16:27.479Z,5.70
2019-03-05T22:18:55.177Z,5.60
2019-03-05T22:21:23.269Z,5.60
2019-03-05T22:23:50.391Z,5.60
2019-03-05T22:26:17.541Z,5.70
2019-03-05T22:28:44.739Z,5.70
2019-03-05T22:31:11.685Z,5.70
2019-03-05T22:33:38.680Z,5.90
2019-03-05T22:36:07.583Z,5.90
2019-03-05T22:38:34.557Z,5.80
2019-03-05T22:41:03.078Z,5.90
2019-03-05T22:43:30.100Z,6.00
2019-03-05T22:45:57.133Z,5.80
2019-03-05T22:48:24.345Z,5.90
2019-03-05T22:50:51.562Z,5.90
2019-03-05T22:53:18.732Z,6.00
2019-03-05T22:55:45.661Z,6.00
2019-03-05T22:58:12.919Z,6.00
2019-03-05T23:01:07.591Z,5.90
2019-03-05T23:03:35.079Z,6.00
2019-03-05T23:06:05.932Z,6.10
2019-03-05T23:08:33.021Z,6.20
2019-03-05T23:11:00.420Z,6.20
2019-03-05T23:13:28.108Z,6.20
2019-03-05T23:15:55.484Z,6.00
2019-03-05T23:18:22.531Z,6.10
2019-03-05T23:20:49.489Z,6.10
2019-03-05T23:23:16.515Z,6.10
2019-03-05T23:25:43.559Z,6.30
2019-03-05T23:28:10.695Z,6.30
2019-03-05T23:30:38.220Z,6.20
2019-03-05T23:33:05.596Z,6.20
2019-03-05T23:35:32.698Z,6.30
2019-03-05T23:37:59.703Z,6.40
2019-03-05T23:40:26.833Z,6.40
2019-03-05T23:42:55.697Z,6.50
2019-03-05T23:45:22.778Z,6.60
2019-03-05T23:47:49.821Z,6.60
2019-03-05T23:50:16.893Z,6.60
2019-03-05T23:52:44.355Z,6.40
2019-03-05T23:55:11.870Z,6.50
2019-03-05T23:57:38.923Z,6.50
